This is the latest recevied weather packets stored in our database for station/object YN1ZSC-13. If no packets are shown the sender has not sent any weather packets the latest 10 day(s).
| Time | Temp. | Humidity | Pressure | Rain* | Wind** | Luminosity | Snow |
|---|---|---|---|---|---|---|---|
| 1777746037 | 31.11° C | 49% | 1010 hPa | 0 mm | - | - | - |
| 1777745436 | 31.11° C | 49% | 1010 hPa | 0 mm | - | - | - |
| 1777744836 | 31.67° C | 49% | 1010 hPa | 0 mm | - | - | - |
| 1777744235 | 32.22° C | 49% | 1010 hPa | 0 mm | - | - | - |
| 1777743635 | 32.78° C | 49% | 1010 hPa | 0 mm | - | - | - |
| 1777743034 | 30.56° C | 53% | 1010 hPa | 0 mm | - | - | - |
| 1777742434 | 30.56° C | 55% | 1011 hPa | 0 mm | - | - | - |
| 1777741833 | 31.11° C | 55% | 1011 hPa | 0 mm | - | - | - |
| 1777741233 | 31.11° C | 55% | 1011 hPa | 0 mm | - | - | - |
| 1777740632 | 31.11° C | 56% | 1011 hPa | 0 mm | - | - | - |
| 1777740032 | 31.11° C | 56% | 1011 hPa | 0 mm | - | - | - |
| 1777739431 | 31.67° C | 57% | 1011 hPa | 0 mm | - | - | - |
| 1777738831 | 28.89° C | 62% | 1012 hPa | 0 mm | - | - | - |
| 1777738230 | 29.44° C | 62% | 1012 hPa | 0 mm | - | - | - |
| 1777737630 | 29.44° C | 62% | 1012 hPa | 0 mm | - | - | - |
| 1777737029 | 27.78° C | 70% | 1012 hPa | 0 mm | - | - | - |
| 1777736429 | 27.78° C | 70% | 1012 hPa | 0 mm | - | - | - |
| 1777735828 | 28.33° C | 70% | 1012 hPa | 0 mm | - | - | - |
| 1777735227 | 28.33° C | 70% | 1012 hPa | 0 mm | - | - | - |
| 1777734627 | 27.22° C | 70% | 1012 hPa | 0 mm | - | - | - |
| 1777734026 | 27.22° C | 70% | 1012 hPa | 0 mm | - | - | - |
| 1777733426 | 27.22° C | 70% | 1012 hPa | 0 mm | - | - | - |
| 1777732825 | 27.22° C | 70% | 1012 hPa | 0 mm | - | - | - |
| 1777732225 | 27.78° C | 70% | 1012 hPa | 0 mm | - | - | - |
| 1777731624 | 27.78° C | 70% | 1012 hPa | 0 mm | - | - | - |
* Rain latest hour (hover to see other rain measurements)
** Current wind speed in m/s (hover to see current wind gust speed)